Spirit Of Baltimore — WDE9403 — position and weather

sailwx.info

Track history (hours):
 
Tides and Currents Weather Stations Pressure Air Temp Water Temp Dewpoint Dewpoint Depression Visibility Wind Speed Wind Dir Waves Ship Positions

Spirit Of Baltimore

Owner: Spirit Cruises, LLC, Baltimore, MD. More information available from US FCC via Universal Licensing System and Coast Guard Vessel Documentation Center.

Last reported at 2018-Aug-12 23:46 UTC. Time now 2018-Aug-16 08:45 UTC.
Position N 39°17' W 076°37'.

Length 40 m; draft 1.6 m.

Type: Passenger vessel. MMSI: 367416810.

Date/timePositionNaut miles runAvg speedWind from/ knotsBaromVisibWave heightAir tempDewpointWater temp
2018-Aug-12 23:46N 39°17' W 076°37'0 0.0
2018-Aug-12 23:30N 39°17' W 076°37'2 3.3
2018-Aug-12 23:00N 39°16' W 076°35'3 6.3
2018-Aug-12 22:30N 39°14' W 076°32'1 1.4
2018-Aug-12 22:00N 39°13' W 076°32'3 6.3
2018-Aug-12 21:30N 39°16' W 076°35'2 3.7
2018-Aug-12 21:00N 39°17' W 076°37'0 0.0
2018-Aug-12 20:30N 39°17' W 076°37'0 0.0
2018-Aug-12 06:05N 39°17' W 076°37'0 0.1
2018-Aug-12 06:00N 39°17' W 076°37'1 2.4
2018-Aug-12 05:30N 39°17' W 076°35'1 1.5
2018-Aug-12 05:00N 39°16' W 076°35'1 2.3
2018-Aug-12 04:30N 39°17' W 076°36'1 1.6
2018-Aug-12 04:00N 39°17' W 076°37'0 0.0
2018-Aug-12 03:30N 39°17' W 076°37'0 0.0
2018-Aug-12 03:00N 39°17' W 076°37'0 0.0
2018-Aug-12 02:30N 39°17' W 076°37'0 0.0
2018-Aug-12 02:00N 39°17' W 076°37'1 1.8
2018-Aug-12 01:30N 39°17' W 076°36'2 4.0
2018-Aug-12 01:00N 39°15' W 076°34'1 2.4
2018-Aug-12 00:30N 39°15' W 076°33'2 4.6
2018-Aug-12 00:01N 39°15' W 076°35'1 2.1
2018-Aug-11 23:30N 39°16' W 076°35'1 2.8
2018-Aug-11 23:00N 39°17' W 076°37'0 0.0
2018-Aug-11 22:30N 39°17' W 076°37'0 0.0
2018-Aug-11 22:00N 39°17' W 076°37'0 0.0
2018-Aug-11 21:30N 39°17' W 076°37'2 4.4
2018-Aug-11 21:00N 39°16' W 076°34'3 5.6
2018-Aug-11 20:30N 39°14' W 076°32'3 6.6
2018-Aug-11 20:00N 39°16' W 076°35'2 3.6
2018-Aug-11 19:30N 39°17' W 076°37'0 0.0
2018-Aug-11 19:00N 39°17' W 076°37'0 0.0
2018-Aug-11 18:30N 39°17' W 076°37'0 0.0
2018-Aug-11 18:00N 39°17' W 076°37'2 4.8
2018-Aug-11 17:30N 39°16' W 076°34'3 6.2
2018-Aug-11 17:00N 39°13' W 076°32'4 7.1
2018-Aug-11 16:30N 39°16' W 076°35'2 3.9
2018-Aug-11 16:00N 39°17' W 076°37'0 0.0
2018-Aug-11 15:30N 39°17' W 076°37'0 0.0
2018-Aug-11 02:00N 39°17' W 076°37'2 3.1
2018-Aug-11 01:30N 39°16' W 076°35'2 3.8
2018-Aug-11 01:00N 39°15' W 076°34'2 3.4
2018-Aug-11 00:30N 39°14' W 076°32'0 0.7
2018-Aug-11 00:00N 39°13' W 076°32'3 6.6
2018-Aug-10 23:30N 39°16' W 076°34'2 3.8
2018-Aug-10 22:58N 39°17' W 076°37'0 0.1
2018-Aug-10 22:31N 39°17' W 076°37'0 0.1
2018-Aug-10 21:58N 39°17' W 076°37'0 0.0
2018-Aug-10 21:28N 39°17' W 076°37'0 0.0
2018-Aug-10 20:58N 39°17' W 076°37'0 0.0
2018-Aug-10 20:28N 39°17' W 076°37'0 0.0
2018-Aug-10 19:58N 39°17' W 076°37'0 0.0
2018-Aug-10 19:28N 39°17' W 076°37'0 0.0
2018-Aug-10 18:58N 39°17' W 076°37'0 0.0
2018-Aug-10 18:28N 39°17' W 076°37'0 0.0
2018-Aug-10 18:00N 39°17' W 076°37'2 3.3
2018-Aug-10 17:30N 39°16' W 076°35'3 6.2
2018-Aug-10 17:00N 39°14' W 076°32'2 4.7
2018-Aug-10 16:30N 39°16' W 076°34'2 3.9
2018-Aug-10 15:56N 39°17' W 076°37'0 0.0
2018-Aug-10 15:28N 39°17' W 076°37'0 0.0
2018-Aug-10 14:58N 39°17' W 076°37'0 0.0
2018-Aug-10 14:28N 39°17' W 076°37'0 0.0
2018-Aug-10 13:55N 39°17' W 076°37'0 0.0
2018-Aug-10 13:28N 39°17' W 076°37'0 0.0
2018-Aug-10 01:42N 39°17' W 076°37'0 0.0
2018-Aug-10 01:30N 39°17' W 076°37'2 4.0
2018-Aug-10 01:00N 39°16' W 076°35'3 5.8
2018-Aug-10 00:30N 39°14' W 076°32'1 1.1
2018-Aug-10 00:00N 39°13' W 076°32'4 7.1
2018-Aug-09 23:31N 39°16' W 076°35'2 3.8
2018-Aug-09 23:00N 39°17' W 076°37'0 0.0
2018-Aug-09 22:30N 39°17' W 076°37'0 0.0
2018-Aug-09 22:00N 39°17' W 076°37'0 0.0
2018-Aug-09 01:52N 39°17' W 076°37'0 0.0
2018-Aug-09 01:30N 39°17' W 076°37'2 3.8
2018-Aug-09 01:00N 39°16' W 076°35'3 6.5
2018-Aug-09 00:31N 39°13' W 076°32'0 0.7
2018-Aug-09 00:01N 39°14' W 076°32'3 6.1
2018-Aug-08 23:31N 39°16' W 076°35'2 3.3
2018-Aug-08 22:59N 39°17' W 076°37'0 0.0
2018-Aug-08 22:29N 39°17' W 076°37'0 0.0
2018-Aug-08 21:59N 39°17' W 076°37'0 0.0
2018-Aug-08 21:29N 39°17' W 076°37'0 0.0
2018-Aug-08 20:59N 39°17' W 076°37'0 0.0
2018-Aug-08 20:29N 39°17' W 076°37'0 0.0
2018-Aug-08 19:59N 39°17' W 076°37'0 0.0
2018-Aug-08 19:29N 39°17' W 076°37'0 0.0
2018-Aug-08 18:59N 39°17' W 076°37'0 0.0
2018-Aug-08 18:29N 39°17' W 076°37'0 0.0
2018-Aug-08 18:00N 39°17' W 076°37'2 4.2
2018-Aug-08 17:30N 39°16' W 076°34'3 6.8
2018-Aug-08 17:00N 39°13' W 076°32'2 4.8
2018-Aug-08 16:30N 39°15' W 076°34'3 5.6
2018-Aug-08 15:58N 39°17' W 076°37'0 0.0
2018-Aug-08 15:26N 39°17' W 076°37'0 0.0
2018-Aug-08 14:58N 39°17' W 076°37'0 0.0
2018-Aug-08 14:26N 39°17' W 076°37'0 0.0
2018-Aug-08 13:58N 39°17' W 076°37'0 0.0
2018-Aug-08 13:26N 39°17' W 076°37'0 0.0
2018-Aug-08 01:45N 39°17' W 076°37'0 0.0
2018-Aug-08 01:30N 39°17' W 076°37'1 2.2
2018-Aug-08 01:00N 39°17' W 076°35'3 6.7
2018-Aug-08 00:30N 39°14' W 076°32'1 2.3
2018-Aug-08 00:00N 39°13' W 076°32'3 6.4
2018-Aug-07 23:30N 39°16' W 076°34'2 4.2
2018-Aug-07 23:00N 39°17' W 076°37'0 0.0
2018-Aug-07 22:30N 39°17' W 076°37'0 0.0
2018-Aug-07 22:00N 39°17' W 076°37'0 0.0
2018-Aug-07 21:27N 39°17' W 076°37'0 0.0
2018-Aug-07 21:00N 39°17' W 076°37'0 0.0
2018-Aug-07 20:30N 39°17' W 076°37'0 0.5
2018-Aug-07 20:00N 39°17' W 076°36'1 2.6
2018-Aug-07 19:30N 39°16' W 076°35'3 6.8
2018-Aug-07 19:00N 39°14' W 076°32'1 3.0
2018-Aug-07 18:30N 39°13' W 076°31'4 7.4
2018-Aug-07 18:01N 39°15' W 076°34'2 4.8
2018-Aug-07 17:30N 39°17' W 076°36'0 0.0
2018-Aug-07 17:00N 39°17' W 076°36'0 0.0
2018-Aug-07 16:30N 39°17' W 076°36'0 0.5
2018-Aug-07 16:00N 39°17' W 076°37'0 0.0
2018-Aug-07 15:29N 39°17' W 076°37'0 0.0
2018-Aug-07 01:42N 39°17' W 076°37'0 0.0
2018-Aug-07 01:30N 39°17' W 076°37'2 3.5
2018-Aug-07 01:00N 39°16' W 076°35'2 5.1
2018-Aug-07 00:30N 39°14' W 076°33'1 1.3
2018-Aug-07 00:01N 39°14' W 076°32'3 5.8
2018-Aug-06 23:30N 39°16' W 076°35'2 3.6
2018-Aug-06 22:58N 39°17' W 076°37'0 0.0
2018-Aug-06 22:28N 39°17' W 076°37'0 0.0
2018-Aug-06 21:58N 39°17' W 076°37'0 0.0
2018-Aug-05 23:51N 39°17' W 076°37'0 0.0
2018-Aug-05 23:30N 39°17' W 076°37'1 2.2
2018-Aug-05 23:00N 39°17' W 076°35'2 4.9
2018-Aug-05 22:30N 39°15' W 076°33'3 5.2
2018-Aug-05 22:00N 39°13' W 076°31'4 7.9
2018-Aug-05 21:30N 39°16' W 076°35'2 3.7
2018-Aug-05 20:59N 39°17' W 076°37'0 0.0
2018-Aug-05 20:29N 39°17' W 076°37'0 0.0
2018-Aug-05 02:00N 39°17' W 076°37'1 2.2
2018-Aug-05 01:30N 39°17' W 076°35'1 1.9
2018-Aug-05 01:01N 39°16' W 076°36'3 6.1
2018-Aug-05 00:31N 39°14' W 076°33'0 0.6
2018-Aug-05 00:01N 39°14' W 076°32'4 7.4
2018-Aug-04 23:30N 39°17' W 076°35'1 1.9
2018-Aug-04 22:52N 39°17' W 076°37'0 0.0
2018-Aug-04 22:26N 39°17' W 076°37'0 0.0
2018-Aug-04 21:58N 39°17' W 076°37'0 0.0
2018-Aug-04 21:28N 39°17' W 076°37'0 0.0
2018-Aug-04 20:58N 39°17' W 076°37'0 0.0
2018-Aug-04 20:28N 39°17' W 076°37'0 0.0
2018-Aug-04 19:58N 39°17' W 076°37'0 0.0
2018-Aug-04 19:28N 39°17' W 076°37'0 0.0
2018-Aug-04 18:58N 39°17' W 076°37'0 0.0
2018-Aug-04 18:28N 39°17' W 076°37'0 0.0
2018-Aug-04 17:58N 39°17' W 076°37'2 3.9
2018-Aug-04 17:30N 39°16' W 076°35'4 8.0
2018-Aug-04 17:01N 39°13' W 076°32'4 7.1
2018-Aug-04 16:31N 39°16' W 076°34'2 4.1
2018-Aug-04 15:59N 39°17' W 076°37'0 0.0
2018-Aug-04 15:29N 39°17' W 076°37'0 0.0
2018-Aug-04 14:59N 39°17' W 076°37'0 0.0
2018-Aug-04 02:02N 39°17' W 076°37'0 0.1
2018-Aug-04 01:59N 39°17' W 076°37'1 2.2
2018-Aug-04 01:30N 39°17' W 076°35'2 4.1
2018-Aug-04 01:00N 39°15' W 076°34'3 5.1
2018-Aug-04 00:30N 39°13' W 076°32'4 7.5
2018-Aug-04 00:00N 39°16' W 076°35'2 3.5
2018-Aug-03 23:28N 39°17' W 076°37'0 0.1
2018-Aug-03 22:58N 39°17' W 076°37'0 0.1
2018-Aug-03 22:28N 39°17' W 076°37'0 0.0
2018-Aug-03 21:58N 39°17' W 076°37'0 0.0
2018-Aug-03 21:28N 39°17' W 076°37'0 0.0
2018-Aug-03 20:58N 39°17' W 076°37'0 0.0
2018-Aug-03 20:28N 39°17' W 076°37'0 0.0
2018-Aug-03 19:58N 39°17' W 076°37'0 0.0
2018-Aug-03 19:28N 39°17' W 076°37'0 0.1
2018-Aug-03 18:58N 39°17' W 076°37'0 0.1
2018-Aug-03 18:28N 39°17' W 076°37'0 0.2
2018-Aug-03 18:00N 39°17' W 076°37'3 5.6
2018-Aug-03 17:30N 39°15' W 076°34'3 5.3
2018-Aug-03 17:00N 39°13' W 076°32'3 6.3
2018-Aug-03 16:31N 39°16' W 076°34'2 4.4
2018-Aug-03 15:58N 39°17' W 076°37'0 0.0
2018-Aug-03 15:28N 39°17' W 076°37'0 0.0
2018-Aug-03 14:58N 39°17' W 076°37'0 0.0
2018-Aug-03 14:28N 39°17' W 076°37'0 0.0
2018-Aug-03 13:49N 39°17' W 076°37'  
Track history (hours):
 
Tides and Currents Weather Stations Pressure Air Temp Water Temp Dewpoint Dewpoint Depression Visibility Wind Speed Wind Dir Waves Ship Positions

Spirit Of Baltimore

Owner: Spirit Cruises, LLC, Baltimore, MD. More information available from US FCC via Universal Licensing System and Coast Guard Vessel Documentation Center.

Last reported at 2018-Aug-12 23:46 UTC. Time now 2018-Aug-16 08:45 UTC.
Position N 39°17' W 076°37'.

Length 40 m; draft 1.6 m.

Type: Passenger vessel. MMSI: 367416810.

Date/timePositionNaut miles runAvg speedWind from/ knotsBaromVisibWave heightAir tempDewpointWater temp
2018-Aug-12 23:46N 39°17' W 076°37'0 0.0
2018-Aug-12 23:30N 39°17' W 076°37'2 3.3
2018-Aug-12 23:00N 39°16' W 076°35'3 6.3
2018-Aug-12 22:30N 39°14' W 076°32'1 1.4
2018-Aug-12 22:00N 39°13' W 076°32'3 6.3
2018-Aug-12 21:30N 39°16' W 076°35'2 3.7
2018-Aug-12 21:00N 39°17' W 076°37'0 0.0
2018-Aug-12 20:30N 39°17' W 076°37'0 0.0
2018-Aug-12 06:05N 39°17' W 076°37'0 0.1
2018-Aug-12 06:00N 39°17' W 076°37'1 2.4
2018-Aug-12 05:30N 39°17' W 076°35'1 1.5
2018-Aug-12 05:00N 39°16' W 076°35'1 2.3
2018-Aug-12 04:30N 39°17' W 076°36'1 1.6
2018-Aug-12 04:00N 39°17' W 076°37'0 0.0
2018-Aug-12 03:30N 39°17' W 076°37'0 0.0
2018-Aug-12 03:00N 39°17' W 076°37'0 0.0
2018-Aug-12 02:30N 39°17' W 076°37'0 0.0
2018-Aug-12 02:00N 39°17' W 076°37'1 1.8
2018-Aug-12 01:30N 39°17' W 076°36'2 4.0
2018-Aug-12 01:00N 39°15' W 076°34'1 2.4
2018-Aug-12 00:30N 39°15' W 076°33'2 4.6
2018-Aug-12 00:01N 39°15' W 076°35'1 2.1
2018-Aug-11 23:30N 39°16' W 076°35'1 2.8
2018-Aug-11 23:00N 39°17' W 076°37'0 0.0
2018-Aug-11 22:30N 39°17' W 076°37'0 0.0
2018-Aug-11 22:00N 39°17' W 076°37'0 0.0
2018-Aug-11 21:30N 39°17' W 076°37'2 4.4
2018-Aug-11 21:00N 39°16' W 076°34'3 5.6
2018-Aug-11 20:30N 39°14' W 076°32'3 6.6
2018-Aug-11 20:00N 39°16' W 076°35'2 3.6
2018-Aug-11 19:30N 39°17' W 076°37'0 0.0
2018-Aug-11 19:00N 39°17' W 076°37'0 0.0
2018-Aug-11 18:30N 39°17' W 076°37'0 0.0
2018-Aug-11 18:00N 39°17' W 076°37'2 4.8
2018-Aug-11 17:30N 39°16' W 076°34'3 6.2
2018-Aug-11 17:00N 39°13' W 076°32'4 7.1
2018-Aug-11 16:30N 39°16' W 076°35'2 3.9
2018-Aug-11 16:00N 39°17' W 076°37'0 0.0
2018-Aug-11 15:30N 39°17' W 076°37'0 0.0
2018-Aug-11 02:00N 39°17' W 076°37'2 3.1
2018-Aug-11 01:30N 39°16' W 076°35'2 3.8
2018-Aug-11 01:00N 39°15' W 076°34'2 3.4
2018-Aug-11 00:30N 39°14' W 076°32'0 0.7
2018-Aug-11 00:00N 39°13' W 076°32'3 6.6
2018-Aug-10 23:30N 39°16' W 076°34'2 3.8
2018-Aug-10 22:58N 39°17' W 076°37'0 0.1
2018-Aug-10 22:31N 39°17' W 076°37'0 0.1
2018-Aug-10 21:58N 39°17' W 076°37'0 0.0
2018-Aug-10 21:28N 39°17' W 076°37'0 0.0
2018-Aug-10 20:58N 39°17' W 076°37'0 0.0
2018-Aug-10 20:28N 39°17' W 076°37'0 0.0
2018-Aug-10 19:58N 39°17' W 076°37'0 0.0
2018-Aug-10 19:28N 39°17' W 076°37'0 0.0
2018-Aug-10 18:58N 39°17' W 076°37'0 0.0
2018-Aug-10 18:28N 39°17' W 076°37'0 0.0
2018-Aug-10 18:00N 39°17' W 076°37'2 3.3
2018-Aug-10 17:30N 39°16' W 076°35'3 6.2
2018-Aug-10 17:00N 39°14' W 076°32'2 4.7
2018-Aug-10 16:30N 39°16' W 076°34'2 3.9
2018-Aug-10 15:56N 39°17' W 076°37'0 0.0
2018-Aug-10 15:28N 39°17' W 076°37'0 0.0
2018-Aug-10 14:58N 39°17' W 076°37'0 0.0
2018-Aug-10 14:28N 39°17' W 076°37'0 0.0
2018-Aug-10 13:55N 39°17' W 076°37'0 0.0
2018-Aug-10 13:28N 39°17' W 076°37'0 0.0
2018-Aug-10 01:42N 39°17' W 076°37'0 0.0
2018-Aug-10 01:30N 39°17' W 076°37'2 4.0
2018-Aug-10 01:00N 39°16' W 076°35'3 5.8
2018-Aug-10 00:30N 39°14' W 076°32'1 1.1
2018-Aug-10 00:00N 39°13' W 076°32'4 7.1
2018-Aug-09 23:31N 39°16' W 076°35'2 3.8
2018-Aug-09 23:00N 39°17' W 076°37'0 0.0
2018-Aug-09 22:30N 39°17' W 076°37'0 0.0
2018-Aug-09 22:00N 39°17' W 076°37'0 0.0
2018-Aug-09 01:52N 39°17' W 076°37'0 0.0
2018-Aug-09 01:30N 39°17' W 076°37'2 3.8
2018-Aug-09 01:00N 39°16' W 076°35'3 6.5
2018-Aug-09 00:31N 39°13' W 076°32'0 0.7
2018-Aug-09 00:01N 39°14' W 076°32'3 6.1
2018-Aug-08 23:31N 39°16' W 076°35'2 3.3
2018-Aug-08 22:59N 39°17' W 076°37'0 0.0
2018-Aug-08 22:29N 39°17' W 076°37'0 0.0
2018-Aug-08 21:59N 39°17' W 076°37'0 0.0
2018-Aug-08 21:29N 39°17' W 076°37'0 0.0
2018-Aug-08 20:59N 39°17' W 076°37'0 0.0
2018-Aug-08 20:29N 39°17' W 076°37'0 0.0
2018-Aug-08 19:59N 39°17' W 076°37'0 0.0
2018-Aug-08 19:29N 39°17' W 076°37'0 0.0
2018-Aug-08 18:59N 39°17' W 076°37'0 0.0
2018-Aug-08 18:29N 39°17' W 076°37'0 0.0
2018-Aug-08 18:00N 39°17' W 076°37'2 4.2
2018-Aug-08 17:30N 39°16' W 076°34'3 6.8
2018-Aug-08 17:00N 39°13' W 076°32'2 4.8
2018-Aug-08 16:30N 39°15' W 076°34'3 5.6
2018-Aug-08 15:58N 39°17' W 076°37'0 0.0
2018-Aug-08 15:26N 39°17' W 076°37'0 0.0
2018-Aug-08 14:58N 39°17' W 076°37'0 0.0
2018-Aug-08 14:26N 39°17' W 076°37'0 0.0
2018-Aug-08 13:58N 39°17' W 076°37'0 0.0
2018-Aug-08 13:26N 39°17' W 076°37'0 0.0
2018-Aug-08 01:45N 39°17' W 076°37'0 0.0
2018-Aug-08 01:30N 39°17' W 076°37'1 2.2
2018-Aug-08 01:00N 39°17' W 076°35'3 6.7
2018-Aug-08 00:30N 39°14' W 076°32'1 2.3
2018-Aug-08 00:00N 39°13' W 076°32'3 6.4
2018-Aug-07 23:30N 39°16' W 076°34'2 4.2
2018-Aug-07 23:00N 39°17' W 076°37'0 0.0
2018-Aug-07 22:30N 39°17' W 076°37'0 0.0
2018-Aug-07 22:00N 39°17' W 076°37'0 0.0
2018-Aug-07 21:27N 39°17' W 076°37'0 0.0
2018-Aug-07 21:00N 39°17' W 076°37'0 0.0
2018-Aug-07 20:30N 39°17' W 076°37'0 0.5
2018-Aug-07 20:00N 39°17' W 076°36'1 2.6
2018-Aug-07 19:30N 39°16' W 076°35'3 6.8
2018-Aug-07 19:00N 39°14' W 076°32'1 3.0
2018-Aug-07 18:30N 39°13' W 076°31'4 7.4
2018-Aug-07 18:01N 39°15' W 076°34'2 4.8
2018-Aug-07 17:30N 39°17' W 076°36'0 0.0
2018-Aug-07 17:00N 39°17' W 076°36'0 0.0
2018-Aug-07 16:30N 39°17' W 076°36'0 0.5
2018-Aug-07 16:00N 39°17' W 076°37'0 0.0
2018-Aug-07 15:29N 39°17' W 076°37'0 0.0
2018-Aug-07 01:42N 39°17' W 076°37'0 0.0
2018-Aug-07 01:30N 39°17' W 076°37'2 3.5
2018-Aug-07 01:00N 39°16' W 076°35'2 5.1
2018-Aug-07 00:30N 39°14' W 076°33'1 1.3
2018-Aug-07 00:01N 39°14' W 076°32'3 5.8
2018-Aug-06 23:30N 39°16' W 076°35'2 3.6
2018-Aug-06 22:58N 39°17' W 076°37'0 0.0
2018-Aug-06 22:28N 39°17' W 076°37'0 0.0
2018-Aug-06 21:58N 39°17' W 076°37'0 0.0
2018-Aug-05 23:51N 39°17' W 076°37'0 0.0
2018-Aug-05 23:30N 39°17' W 076°37'1 2.2
2018-Aug-05 23:00N 39°17' W 076°35'2 4.9
2018-Aug-05 22:30N 39°15' W 076°33'3 5.2
2018-Aug-05 22:00N 39°13' W 076°31'4 7.9
2018-Aug-05 21:30N 39°16' W 076°35'2 3.7
2018-Aug-05 20:59N 39°17' W 076°37'0 0.0
2018-Aug-05 20:29N 39°17' W 076°37'0 0.0
2018-Aug-05 02:00N 39°17' W 076°37'1 2.2
2018-Aug-05 01:30N 39°17' W 076°35'1 1.9
2018-Aug-05 01:01N 39°16' W 076°36'3 6.1
2018-Aug-05 00:31N 39°14' W 076°33'0 0.6
2018-Aug-05 00:01N 39°14' W 076°32'4 7.4
2018-Aug-04 23:30N 39°17' W 076°35'1 1.9
2018-Aug-04 22:52N 39°17' W 076°37'0 0.0
2018-Aug-04 22:26N 39°17' W 076°37'0 0.0
2018-Aug-04 21:58N 39°17' W 076°37'0 0.0
2018-Aug-04 21:28N 39°17' W 076°37'0 0.0
2018-Aug-04 20:58N 39°17' W 076°37'0 0.0
2018-Aug-04 20:28N 39°17' W 076°37'0 0.0
2018-Aug-04 19:58N 39°17' W 076°37'0 0.0
2018-Aug-04 19:28N 39°17' W 076°37'0 0.0
2018-Aug-04 18:58N 39°17' W 076°37'0 0.0
2018-Aug-04 18:28N 39°17' W 076°37'0 0.0
2018-Aug-04 17:58N 39°17' W 076°37'2 3.9
2018-Aug-04 17:30N 39°16' W 076°35'4 8.0
2018-Aug-04 17:01N 39°13' W 076°32'4 7.1
2018-Aug-04 16:31N 39°16' W 076°34'2 4.1
2018-Aug-04 15:59N 39°17' W 076°37'0 0.0
2018-Aug-04 15:29N 39°17' W 076°37'0 0.0
2018-Aug-04 14:59N 39°17' W 076°37'0 0.0
2018-Aug-04 02:02N 39°17' W 076°37'0 0.1
2018-Aug-04 01:59N 39°17' W 076°37'1 2.2
2018-Aug-04 01:30N 39°17' W 076°35'2 4.1
2018-Aug-04 01:00N 39°15' W 076°34'3 5.1
2018-Aug-04 00:30N 39°13' W 076°32'4 7.5
2018-Aug-04 00:00N 39°16' W 076°35'2 3.5
2018-Aug-03 23:28N 39°17' W 076°37'0 0.1
2018-Aug-03 22:58N 39°17' W 076°37'0 0.1
2018-Aug-03 22:28N 39°17' W 076°37'0 0.0
2018-Aug-03 21:58N 39°17' W 076°37'0 0.0
2018-Aug-03 21:28N 39°17' W 076°37'0 0.0
2018-Aug-03 20:58N 39°17' W 076°37'0 0.0
2018-Aug-03 20:28N 39°17' W 076°37'0 0.0
2018-Aug-03 19:58N 39°17' W 076°37'0 0.0
2018-Aug-03 19:28N 39°17' W 076°37'0 0.1
2018-Aug-03 18:58N 39°17' W 076°37'0 0.1
2018-Aug-03 18:28N 39°17' W 076°37'0 0.2
2018-Aug-03 18:00N 39°17' W 076°37'3 5.6
2018-Aug-03 17:30N 39°15' W 076°34'3 5.3
2018-Aug-03 17:00N 39°13' W 076°32'3 6.3
2018-Aug-03 16:31N 39°16' W 076°34'2 4.4
2018-Aug-03 15:58N 39°17' W 076°37'0 0.0
2018-Aug-03 15:28N 39°17' W 076°37'0 0.0
2018-Aug-03 14:58N 39°17' W 076°37'0 0.0
2018-Aug-03 14:28N 39°17' W 076°37'0 0.0
2018-Aug-03 13:49N 39°17' W 076°37'  

Dump ship's entire track history